sensor_id;sensor_type;location;lat;lon;timestamp;P1;durP1;ratioP1;P2;durP2;ratioP2
74660;SDS011;63191;39.566;2.654;2023-06-04T00:02:24;8.90;;;3.90;;
74660;SDS011;63191;39.566;2.654;2023-06-04T00:04:50;8.60;;;3.70;;
74660;SDS011;63191;39.566;2.654;2023-06-04T00:07:16;8.90;;;3.20;;
74660;SDS011;63191;39.566;2.654;2023-06-04T00:09:42;7.50;;;3.20;;
74660;SDS011;63191;39.566;2.654;2023-06-04T00:12:09;7.00;;;3.10;;
74660;SDS011;63191;39.566;2.654;2023-06-04T00:14:35;7.80;;;3.40;;
74660;SDS011;63191;39.566;2.654;2023-06-04T00:17:01;8.30;;;3.80;;
74660;SDS011;63191;39.566;2.654;2023-06-04T00:19:26;9.20;;;3.90;;
74660;SDS011;63191;39.566;2.654;2023-06-04T00:21:52;8.70;;;4.10;;
74660;SDS011;63191;39.566;2.654;2023-06-04T00:24:18;8.80;;;3.50;;
74660;SDS011;63191;39.566;2.654;2023-06-04T00:26:44;6.40;;;3.20;;
74660;SDS011;63191;39.566;2.654;2023-06-04T00:29:10;7.30;;;3.30;;
74660;SDS011;63191;39.566;2.654;2023-06-04T00:31:36;7.60;;;3.10;;
74660;SDS011;63191;39.566;2.654;2023-06-04T00:34:03;7.70;;;3.20;;
74660;SDS011;63191;39.566;2.654;2023-06-04T00:36:29;9.50;;;3.60;;
74660;SDS011;63191;39.566;2.654;2023-06-04T00:38:55;9.70;;;3.20;;
74660;SDS011;63191;39.566;2.654;2023-06-04T00:41:21;7.40;;;3.90;;
74660;SDS011;63191;39.566;2.654;2023-06-04T00:43:46;7.00;;;3.50;;
74660;SDS011;63191;39.566;2.654;2023-06-04T00:46:25;9.40;;;3.70;;
74660;SDS011;63191;39.566;2.654;2023-06-04T00:48:52;6.30;;;3.00;;
74660;SDS011;63191;39.566;2.654;2023-06-04T00:51:21;7.20;;;2.80;;
74660;SDS011;63191;39.566;2.654;2023-06-04T00:53:51;6.70;;;2.80;;
74660;SDS011;63191;39.566;2.654;2023-06-04T00:56:18;7.20;;;3.50;;
74660;SDS011;63191;39.566;2.654;2023-06-04T00:58:45;7.90;;;3.60;;
74660;SDS011;63191;39.566;2.654;2023-06-04T01:01:26;7.90;;;3.30;;
74660;SDS011;63191;39.566;2.654;2023-06-04T01:04:36;9.70;;;4.20;;
74660;SDS011;63191;39.566;2.654;2023-06-04T01:07:07;6.90;;;3.20;;
74660;SDS011;63191;39.566;2.654;2023-06-04T01:09:35;7.40;;;3.10;;
74660;SDS011;63191;39.566;2.654;2023-06-04T01:12:06;7.00;;;2.70;;
74660;SDS011;63191;39.566;2.654;2023-06-04T01:14:33;8.10;;;2.90;;
74660;SDS011;63191;39.566;2.654;2023-06-04T01:17:04;7.40;;;3.20;;
74660;SDS011;63191;39.566;2.654;2023-06-04T01:25:53;7.40;;;3.70;;
74660;SDS011;63191;39.566;2.654;2023-06-04T01:28:20;9.10;;;3.30;;
74660;SDS011;63191;39.566;2.654;2023-06-04T01:30:47;8.80;;;3.10;;
74660;SDS011;63191;39.566;2.654;2023-06-04T01:33:18;10.70;;;3.30;;
74660;SDS011;63191;39.566;2.654;2023-06-04T01:35:44;6.80;;;3.20;;
74660;SDS011;63191;39.566;2.654;2023-06-04T01:38:10;7.10;;;3.40;;
74660;SDS011;63191;39.566;2.654;2023-06-04T01:40:36;8.70;;;3.40;;
74660;SDS011;63191;39.566;2.654;2023-06-04T01:43:02;8.00;;;3.30;;
74660;SDS011;63191;39.566;2.654;2023-06-04T01:45:29;7.50;;;4.10;;
74660;SDS011;63191;39.566;2.654;2023-06-04T01:47:56;8.70;;;3.50;;
74660;SDS011;63191;39.566;2.654;2023-06-04T01:50:22;7.70;;;3.30;;
74660;SDS011;63191;39.566;2.654;2023-06-04T01:52:48;8.80;;;3.60;;
74660;SDS011;63191;39.566;2.654;2023-06-04T01:55:16;6.60;;;3.40;;
74660;SDS011;63191;39.566;2.654;2023-06-04T01:57:43;7.50;;;3.50;;
74660;SDS011;63191;39.566;2.654;2023-06-04T02:00:10;7.60;;;3.50;;
74660;SDS011;63191;39.566;2.654;2023-06-04T02:02:38;8.70;;;3.30;;
74660;SDS011;63191;39.566;2.654;2023-06-04T02:05:07;8.00;;;3.50;;
74660;SDS011;63191;39.566;2.654;2023-06-04T02:07:41;7.50;;;3.70;;
74660;SDS011;63191;39.566;2.654;2023-06-04T02:10:15;8.10;;;3.60;;
74660;SDS011;63191;39.566;2.654;2023-06-04T02:15:24;9.60;;;3.90;;
74660;SDS011;63191;39.566;2.654;2023-06-04T02:17:53;8.80;;;3.80;;
74660;SDS011;63191;39.566;2.654;2023-06-04T02:20:20;10.00;;;4.00;;
74660;SDS011;63191;39.566;2.654;2023-06-04T02:22:46;9.00;;;3.90;;
74660;SDS011;63191;39.566;2.654;2023-06-04T02:25:13;8.60;;;3.70;;
74660;SDS011;63191;39.566;2.654;2023-06-04T02:27:38;8.20;;;3.50;;
74660;SDS011;63191;39.566;2.654;2023-06-04T02:30:05;8.30;;;3.40;;
74660;SDS011;63191;39.566;2.654;2023-06-04T02:32:32;8.60;;;3.20;;
74660;SDS011;63191;39.566;2.654;2023-06-04T02:34:58;8.20;;;3.30;;
74660;SDS011;63191;39.566;2.654;2023-06-04T02:37:24;9.10;;;4.10;;
74660;SDS011;63191;39.566;2.654;2023-06-04T02:39:50;8.80;;;3.90;;
74660;SDS011;63191;39.566;2.654;2023-06-04T02:42:16;9.60;;;4.80;;
74660;SDS011;63191;39.566;2.654;2023-06-04T02:44:43;8.90;;;4.00;;
74660;SDS011;63191;39.566;2.654;2023-06-04T02:47:09;10.70;;;4.10;;
74660;SDS011;63191;39.566;2.654;2023-06-04T02:49:34;8.10;;;3.80;;
74660;SDS011;63191;39.566;2.654;2023-06-04T02:52:00;7.60;;;3.90;;
74660;SDS011;63191;39.566;2.654;2023-06-04T02:54:26;9.50;;;3.70;;
74660;SDS011;63191;39.566;2.654;2023-06-04T02:56:52;9.00;;;3.50;;
74660;SDS011;63191;39.566;2.654;2023-06-04T02:59:18;7.40;;;3.50;;
74660;SDS011;63191;39.566;2.654;2023-06-04T03:01:44;8.50;;;3.70;;
74660;SDS011;63191;39.566;2.654;2023-06-04T03:04:10;9.40;;;4.00;;
74660;SDS011;63191;39.566;2.654;2023-06-04T03:06:41;10.50;;;3.80;;
74660;SDS011;63191;39.566;2.654;2023-06-04T03:09:10;8.90;;;3.30;;
74660;SDS011;63191;39.566;2.654;2023-06-04T03:11:37;7.80;;;3.50;;
74660;SDS011;63191;39.566;2.654;2023-06-04T03:14:02;8.10;;;3.20;;
74660;SDS011;63191;39.566;2.654;2023-06-04T03:16:28;8.90;;;3.70;;
74660;SDS011;63191;39.566;2.654;2023-06-04T03:18:54;7.60;;;3.40;;
74660;SDS011;63191;39.566;2.654;2023-06-04T03:21:20;9.30;;;3.70;;
74660;SDS011;63191;39.566;2.654;2023-06-04T03:23:46;7.30;;;3.50;;
74660;SDS011;63191;39.566;2.654;2023-06-04T03:26:12;6.80;;;3.20;;
74660;SDS011;63191;39.566;2.654;2023-06-04T03:28:38;7.40;;;3.40;;
74660;SDS011;63191;39.566;2.654;2023-06-04T03:31:04;7.80;;;3.20;;
74660;SDS011;63191;39.566;2.654;2023-06-04T03:33:30;8.50;;;3.80;;
74660;SDS011;63191;39.566;2.654;2023-06-04T03:35:56;7.20;;;3.60;;
74660;SDS011;63191;39.566;2.654;2023-06-04T03:38:25;9.60;;;4.40;;
74660;SDS011;63191;39.566;2.654;2023-06-04T03:40:51;8.10;;;3.60;;
74660;SDS011;63191;39.566;2.654;2023-06-04T03:43:21;11.20;;;4.30;;
74660;SDS011;63191;39.566;2.654;2023-06-04T03:45:47;9.60;;;4.20;;
74660;SDS011;63191;39.566;2.654;2023-06-04T03:48:12;7.90;;;3.90;;
74660;SDS011;63191;39.566;2.654;2023-06-04T03:50:38;9.00;;;4.20;;
74660;SDS011;63191;39.566;2.654;2023-06-04T03:53:04;9.00;;;3.60;;
74660;SDS011;63191;39.566;2.654;2023-06-04T03:55:33;8.30;;;4.00;;
74660;SDS011;63191;39.566;2.654;2023-06-04T03:57:59;8.90;;;3.80;;
74660;SDS011;63191;39.566;2.654;2023-06-04T04:00:24;8.60;;;3.90;;
74660;SDS011;63191;39.566;2.654;2023-06-04T04:02:51;9.10;;;4.10;;
74660;SDS011;63191;39.566;2.654;2023-06-04T04:05:17;8.60;;;4.00;;
74660;SDS011;63191;39.566;2.654;2023-06-04T04:07:42;10.40;;;4.20;;
74660;SDS011;63191;39.566;2.654;2023-06-04T04:10:08;8.30;;;4.20;;
74660;SDS011;63191;39.566;2.654;2023-06-04T04:12:35;11.90;;;4.00;;
74660;SDS011;63191;39.566;2.654;2023-06-04T04:15:01;10.90;;;3.60;;
74660;SDS011;63191;39.566;2.654;2023-06-04T04:17:27;7.80;;;3.80;;
74660;SDS011;63191;39.566;2.654;2023-06-04T04:19:54;10.80;;;4.80;;
74660;SDS011;63191;39.566;2.654;2023-06-04T04:22:20;10.70;;;4.30;;
74660;SDS011;63191;39.566;2.654;2023-06-04T04:24:46;8.70;;;4.40;;
74660;SDS011;63191;39.566;2.654;2023-06-04T04:27:12;10.50;;;4.20;;
74660;SDS011;63191;39.566;2.654;2023-06-04T04:29:38;9.50;;;4.10;;
74660;SDS011;63191;39.566;2.654;2023-06-04T04:32:04;8.80;;;3.90;;
74660;SDS011;63191;39.566;2.654;2023-06-04T04:34:37;9.40;;;4.10;;
74660;SDS011;63191;39.566;2.654;2023-06-04T04:37:05;9.20;;;4.40;;
74660;SDS011;63191;39.566;2.654;2023-06-04T04:39:35;8.20;;;3.90;;
74660;SDS011;63191;39.566;2.654;2023-06-04T04:42:04;10.90;;;5.10;;
74660;SDS011;63191;39.566;2.654;2023-06-04T04:44:30;9.60;;;4.70;;
74660;SDS011;63191;39.566;2.654;2023-06-04T04:46:56;9.70;;;4.10;;
74660;SDS011;63191;39.566;2.654;2023-06-04T04:49:22;9.60;;;3.80;;
74660;SDS011;63191;39.566;2.654;2023-06-04T04:51:47;11.90;;;4.20;;
74660;SDS011;63191;39.566;2.654;2023-06-04T04:54:14;9.30;;;4.50;;
74660;SDS011;63191;39.566;2.654;2023-06-04T04:56:40;9.60;;;5.10;;
74660;SDS011;63191;39.566;2.654;2023-06-04T04:59:05;11.20;;;4.60;;
74660;SDS011;63191;39.566;2.654;2023-06-04T05:01:33;10.30;;;4.50;;
74660;SDS011;63191;39.566;2.654;2023-06-04T05:03:58;7.80;;;4.00;;
74660;SDS011;63191;39.566;2.654;2023-06-04T05:06:24;9.80;;;3.90;;
74660;SDS011;63191;39.566;2.654;2023-06-04T05:08:52;8.00;;;3.90;;
74660;SDS011;63191;39.566;2.654;2023-06-04T05:11:18;8.80;;;4.40;;
74660;SDS011;63191;39.566;2.654;2023-06-04T05:13:45;9.20;;;3.80;;
74660;SDS011;63191;39.566;2.654;2023-06-04T05:16:11;8.50;;;4.20;;
74660;SDS011;63191;39.566;2.654;2023-06-04T05:18:38;8.30;;;4.20;;
74660;SDS011;63191;39.566;2.654;2023-06-04T05:21:07;9.00;;;4.40;;
74660;SDS011;63191;39.566;2.654;2023-06-04T05:23:33;8.20;;;4.30;;
74660;SDS011;63191;39.566;2.654;2023-06-04T05:26:02;9.10;;;4.60;;
74660;SDS011;63191;39.566;2.654;2023-06-04T05:28:29;15.10;;;8.60;;
74660;SDS011;63191;39.566;2.654;2023-06-04T05:30:54;23.00;;;14.80;;
74660;SDS011;63191;39.566;2.654;2023-06-04T05:33:29;9.30;;;4.90;;
74660;SDS011;63191;39.566;2.654;2023-06-04T05:35:56;7.80;;;3.70;;
74660;SDS011;63191;39.566;2.654;2023-06-04T05:38:24;8.90;;;4.10;;
74660;SDS011;63191;39.566;2.654;2023-06-04T05:40:56;7.40;;;3.70;;
74660;SDS011;63191;39.566;2.654;2023-06-04T05:43:24;7.50;;;4.00;;
74660;SDS011;63191;39.566;2.654;2023-06-04T05:45:49;7.40;;;4.00;;
74660;SDS011;63191;39.566;2.654;2023-06-04T05:48:17;9.00;;;3.70;;
74660;SDS011;63191;39.566;2.654;2023-06-04T05:50:43;8.00;;;4.10;;
74660;SDS011;63191;39.566;2.654;2023-06-04T05:53:09;7.20;;;4.10;;
74660;SDS011;63191;39.566;2.654;2023-06-04T05:55:35;8.90;;;4.10;;
74660;SDS011;63191;39.566;2.654;2023-06-04T05:58:01;7.70;;;4.30;;
74660;SDS011;63191;39.566;2.654;2023-06-04T06:00:27;8.80;;;3.80;;
74660;SDS011;63191;39.566;2.654;2023-06-04T06:02:53;6.60;;;3.80;;
74660;SDS011;63191;39.566;2.654;2023-06-04T06:05:20;7.60;;;4.00;;
74660;SDS011;63191;39.566;2.654;2023-06-04T06:07:46;9.50;;;4.20;;
74660;SDS011;63191;39.566;2.654;2023-06-04T06:10:13;7.20;;;3.80;;
74660;SDS011;63191;39.566;2.654;2023-06-04T06:12:41;7.60;;;3.70;;
74660;SDS011;63191;39.566;2.654;2023-06-04T06:15:07;8.50;;;3.80;;
74660;SDS011;63191;39.566;2.654;2023-06-04T06:17:33;6.50;;;3.60;;
74660;SDS011;63191;39.566;2.654;2023-06-04T06:20:01;7.20;;;3.80;;
74660;SDS011;63191;39.566;2.654;2023-06-04T06:22:31;8.60;;;4.00;;
74660;SDS011;63191;39.566;2.654;2023-06-04T06:24:57;7.90;;;3.30;;
74660;SDS011;63191;39.566;2.654;2023-06-04T06:27:24;6.30;;;3.10;;
74660;SDS011;63191;39.566;2.654;2023-06-04T06:29:50;7.20;;;3.40;;
74660;SDS011;63191;39.566;2.654;2023-06-04T06:32:16;8.30;;;3.40;;
74660;SDS011;63191;39.566;2.654;2023-06-04T06:34:42;8.00;;;3.10;;
74660;SDS011;63191;39.566;2.654;2023-06-04T06:37:07;6.60;;;3.20;;
74660;SDS011;63191;39.566;2.654;2023-06-04T06:39:33;7.50;;;3.20;;
74660;SDS011;63191;39.566;2.654;2023-06-04T06:41:59;7.50;;;2.90;;
74660;SDS011;63191;39.566;2.654;2023-06-04T06:44:24;7.10;;;3.10;;
74660;SDS011;63191;39.566;2.654;2023-06-04T06:46:50;8.00;;;3.40;;
74660;SDS011;63191;39.566;2.654;2023-06-04T06:49:16;7.80;;;2.90;;
74660;SDS011;63191;39.566;2.654;2023-06-04T06:51:42;6.90;;;3.00;;
74660;SDS011;63191;39.566;2.654;2023-06-04T06:54:14;8.30;;;2.80;;
74660;SDS011;63191;39.566;2.654;2023-06-04T06:56:41;11.70;;;3.50;;
74660;SDS011;63191;39.566;2.654;2023-06-04T06:59:08;6.80;;;2.80;;
74660;SDS011;63191;39.566;2.654;2023-06-04T07:01:34;7.90;;;3.10;;
74660;SDS011;63191;39.566;2.654;2023-06-04T07:04:00;7.40;;;3.30;;
74660;SDS011;63191;39.566;2.654;2023-06-04T07:06:26;6.00;;;3.00;;
74660;SDS011;63191;39.566;2.654;2023-06-04T07:08:52;7.10;;;2.50;;
74660;SDS011;63191;39.566;2.654;2023-06-04T07:11:19;7.10;;;3.00;;
74660;SDS011;63191;39.566;2.654;2023-06-04T07:13:45;6.30;;;3.10;;
74660;SDS011;63191;39.566;2.654;2023-06-04T07:16:10;6.90;;;2.70;;
74660;SDS011;63191;39.566;2.654;2023-06-04T07:18:36;7.10;;;2.60;;
74660;SDS011;63191;39.566;2.654;2023-06-04T07:21:02;8.00;;;3.00;;
74660;SDS011;63191;39.566;2.654;2023-06-04T07:23:28;6.80;;;3.10;;
74660;SDS011;63191;39.566;2.654;2023-06-04T07:25:53;8.10;;;3.20;;
74660;SDS011;63191;39.566;2.654;2023-06-04T07:28:19;6.20;;;3.20;;
74660;SDS011;63191;39.566;2.654;2023-06-04T07:30:47;8.50;;;3.60;;
74660;SDS011;63191;39.566;2.654;2023-06-04T07:33:12;8.20;;;4.20;;
74660;SDS011;63191;39.566;2.654;2023-06-04T07:35:38;9.20;;;3.90;;
74660;SDS011;63191;39.566;2.654;2023-06-04T07:38:04;8.80;;;4.00;;
74660;SDS011;63191;39.566;2.654;2023-06-04T07:40:30;8.70;;;4.10;;
74660;SDS011;63191;39.566;2.654;2023-06-04T07:42:55;6.40;;;3.70;;
74660;SDS011;63191;39.566;2.654;2023-06-04T07:45:21;10.50;;;4.50;;
74660;SDS011;63191;39.566;2.654;2023-06-04T07:47:47;10.20;;;4.50;;
74660;SDS011;63191;39.566;2.654;2023-06-04T07:50:13;8.10;;;4.10;;
74660;SDS011;63191;39.566;2.654;2023-06-04T07:52:39;8.10;;;3.70;;
74660;SDS011;63191;39.566;2.654;2023-06-04T07:55:05;8.90;;;3.70;;
74660;SDS011;63191;39.566;2.654;2023-06-04T07:57:31;6.20;;;2.80;;
74660;SDS011;63191;39.566;2.654;2023-06-04T07:59:57;7.40;;;3.20;;
74660;SDS011;63191;39.566;2.654;2023-06-04T08:02:23;7.20;;;3.30;;
74660;SDS011;63191;39.566;2.654;2023-06-04T08:04:49;9.30;;;3.30;;
74660;SDS011;63191;39.566;2.654;2023-06-04T08:07:15;7.90;;;3.30;;
74660;SDS011;63191;39.566;2.654;2023-06-04T08:09:41;6.80;;;2.80;;
74660;SDS011;63191;39.566;2.654;2023-06-04T08:12:07;8.30;;;3.00;;
74660;SDS011;63191;39.566;2.654;2023-06-04T08:14:33;7.50;;;2.90;;
74660;SDS011;63191;39.566;2.654;2023-06-04T08:16:58;6.30;;;2.60;;
74660;SDS011;63191;39.566;2.654;2023-06-04T08:19:24;9.80;;;3.20;;
74660;SDS011;63191;39.566;2.654;2023-06-04T08:21:50;8.10;;;3.10;;
74660;SDS011;63191;39.566;2.654;2023-06-04T08:24:16;7.10;;;2.60;;
74660;SDS011;63191;39.566;2.654;2023-06-04T08:26:42;6.60;;;3.30;;
74660;SDS011;63191;39.566;2.654;2023-06-04T08:29:08;7.50;;;2.90;;
74660;SDS011;63191;39.566;2.654;2023-06-04T08:31:34;7.30;;;2.90;;
74660;SDS011;63191;39.566;2.654;2023-06-04T08:34:00;6.30;;;2.50;;
74660;SDS011;63191;39.566;2.654;2023-06-04T08:36:27;7.20;;;3.10;;
74660;SDS011;63191;39.566;2.654;2023-06-04T08:38:53;6.70;;;2.70;;
74660;SDS011;63191;39.566;2.654;2023-06-04T08:41:30;6.30;;;2.90;;
74660;SDS011;63191;39.566;2.654;2023-06-04T08:44:00;8.10;;;3.50;;
74660;SDS011;63191;39.566;2.654;2023-06-04T08:46:31;7.10;;;3.30;;
74660;SDS011;63191;39.566;2.654;2023-06-04T08:49:00;8.00;;;2.90;;
74660;SDS011;63191;39.566;2.654;2023-06-04T08:51:33;10.00;;;3.00;;
74660;SDS011;63191;39.566;2.654;2023-06-04T08:54:07;9.10;;;3.10;;
74660;SDS011;63191;39.566;2.654;2023-06-04T08:56:36;8.50;;;3.00;;
74660;SDS011;63191;39.566;2.654;2023-06-04T08:59:03;5.90;;;2.60;;
74660;SDS011;63191;39.566;2.654;2023-06-04T09:01:35;7.00;;;3.10;;
74660;SDS011;63191;39.566;2.654;2023-06-04T09:04:05;8.40;;;2.60;;
74660;SDS011;63191;39.566;2.654;2023-06-04T09:06:33;6.20;;;2.60;;
74660;SDS011;63191;39.566;2.654;2023-06-04T09:09:01;10.00;;;3.10;;
74660;SDS011;63191;39.566;2.654;2023-06-04T09:11:36;6.00;;;2.80;;
74660;SDS011;63191;39.566;2.654;2023-06-04T09:14:11;6.00;;;2.60;;
74660;SDS011;63191;39.566;2.654;2023-06-04T09:16:45;6.60;;;2.30;;
74660;SDS011;63191;39.566;2.654;2023-06-04T09:19:12;6.70;;;2.50;;
74660;SDS011;63191;39.566;2.654;2023-06-04T09:24:25;7.20;;;2.70;;
74660;SDS011;63191;39.566;2.654;2023-06-04T09:27:14;6.00;;;2.20;;
74660;SDS011;63191;39.566;2.654;2023-06-04T09:29:49;5.60;;;2.10;;
74660;SDS011;63191;39.566;2.654;2023-06-04T09:32:27;6.20;;;2.20;;
74660;SDS011;63191;39.566;2.654;2023-06-04T09:34:55;6.30;;;2.10;;
74660;SDS011;63191;39.566;2.654;2023-06-04T09:37:35;5.60;;;2.20;;
74660;SDS011;63191;39.566;2.654;2023-06-04T09:40:01;6.30;;;1.90;;
74660;SDS011;63191;39.566;2.654;2023-06-04T09:42:30;5.60;;;2.80;;
74660;SDS011;63191;39.566;2.654;2023-06-04T09:44:55;5.00;;;2.30;;
74660;SDS011;63191;39.566;2.654;2023-06-04T09:47:23;7.30;;;2.40;;
74660;SDS011;63191;39.566;2.654;2023-06-04T09:49:49;6.10;;;2.20;;
74660;SDS011;63191;39.566;2.654;2023-06-04T09:52:18;6.70;;;2.00;;
74660;SDS011;63191;39.566;2.654;2023-06-04T09:54:46;6.90;;;2.00;;
74660;SDS011;63191;39.566;2.654;2023-06-04T09:57:16;6.00;;;2.10;;
74660;SDS011;63191;39.566;2.654;2023-06-04T09:59:48;9.00;;;2.50;;
74660;SDS011;63191;39.566;2.654;2023-06-04T10:02:20;6.00;;;1.90;;
74660;SDS011;63191;39.566;2.654;2023-06-04T10:04:56;6.70;;;2.60;;
74660;SDS011;63191;39.566;2.654;2023-06-04T10:07:25;7.40;;;2.40;;
74660;SDS011;63191;39.566;2.654;2023-06-04T10:09:52;5.30;;;2.40;;
74660;SDS011;63191;39.566;2.654;2023-06-04T10:12:25;5.40;;;2.40;;
74660;SDS011;63191;39.566;2.654;2023-06-04T10:15:02;5.30;;;2.20;;
74660;SDS011;63191;39.566;2.654;2023-06-04T10:17:34;5.60;;;2.30;;
74660;SDS011;63191;39.566;2.654;2023-06-04T10:20:02;6.10;;;2.30;;
74660;SDS011;63191;39.566;2.654;2023-06-04T10:22:31;6.00;;;2.30;;
74660;SDS011;63191;39.566;2.654;2023-06-04T10:24:59;6.80;;;2.40;;
74660;SDS011;63191;39.566;2.654;2023-06-04T10:27:25;6.90;;;2.10;;
74660;SDS011;63191;39.566;2.654;2023-06-04T10:29:52;4.70;;;2.10;;
74660;SDS011;63191;39.566;2.654;2023-06-04T10:32:18;7.90;;;2.60;;
74660;SDS011;63191;39.566;2.654;2023-06-04T10:34:46;5.60;;;2.60;;
74660;SDS011;63191;39.566;2.654;2023-06-04T10:37:22;6.40;;;2.30;;
74660;SDS011;63191;39.566;2.654;2023-06-04T10:39:56;6.90;;;2.50;;
74660;SDS011;63191;39.566;2.654;2023-06-04T10:42:24;6.10;;;2.60;;
74660;SDS011;63191;39.566;2.654;2023-06-04T10:44:54;5.20;;;2.30;;
74660;SDS011;63191;39.566;2.654;2023-06-04T10:47:21;6.30;;;2.30;;
74660;SDS011;63191;39.566;2.654;2023-06-04T10:49:50;5.70;;;2.40;;
74660;SDS011;63191;39.566;2.654;2023-06-04T10:52:17;6.00;;;2.00;;
74660;SDS011;63191;39.566;2.654;2023-06-04T10:54:46;5.80;;;2.40;;
74660;SDS011;63191;39.566;2.654;2023-06-04T10:57:19;6.00;;;2.30;;
74660;SDS011;63191;39.566;2.654;2023-06-04T10:59:55;4.90;;;2.20;;
74660;SDS011;63191;39.566;2.654;2023-06-04T11:02:22;7.90;;;2.30;;
74660;SDS011;63191;39.566;2.654;2023-06-04T11:05:01;6.00;;;2.10;;
74660;SDS011;63191;39.566;2.654;2023-06-04T11:07:29;5.30;;;1.90;;
74660;SDS011;63191;39.566;2.654;2023-06-04T11:09:59;7.10;;;2.20;;
74660;SDS011;63191;39.566;2.654;2023-06-04T11:12:27;4.70;;;2.10;;
74660;SDS011;63191;39.566;2.654;2023-06-04T11:14:57;5.50;;;2.10;;
74660;SDS011;63191;39.566;2.654;2023-06-04T11:17:24;5.70;;;2.10;;
74660;SDS011;63191;39.566;2.654;2023-06-04T11:19:49;7.10;;;2.00;;
74660;SDS011;63191;39.566;2.654;2023-06-04T11:22:15;5.40;;;1.80;;
74660;SDS011;63191;39.566;2.654;2023-06-04T11:24:41;5.30;;;2.10;;
74660;SDS011;63191;39.566;2.654;2023-06-04T11:27:07;5.90;;;2.10;;
74660;SDS011;63191;39.566;2.654;2023-06-04T11:29:33;7.30;;;1.90;;
74660;SDS011;63191;39.566;2.654;2023-06-04T11:31:58;5.90;;;2.10;;
74660;SDS011;63191;39.566;2.654;2023-06-04T11:34:25;6.10;;;2.00;;
74660;SDS011;63191;39.566;2.654;2023-06-04T11:36:52;6.40;;;2.00;;
74660;SDS011;63191;39.566;2.654;2023-06-04T11:39:19;6.50;;;2.20;;
74660;SDS011;63191;39.566;2.654;2023-06-04T11:41:46;6.10;;;2.10;;
74660;SDS011;63191;39.566;2.654;2023-06-04T11:44:12;6.30;;;2.10;;
74660;SDS011;63191;39.566;2.654;2023-06-04T11:46:42;5.10;;;2.10;;
74660;SDS011;63191;39.566;2.654;2023-06-04T11:49:18;7.10;;;2.50;;
74660;SDS011;63191;39.566;2.654;2023-06-04T11:51:48;6.00;;;2.40;;
74660;SDS011;63191;39.566;2.654;2023-06-04T11:54:16;6.80;;;2.30;;
74660;SDS011;63191;39.566;2.654;2023-06-04T11:56:43;7.20;;;2.40;;
74660;SDS011;63191;39.566;2.654;2023-06-04T11:59:11;6.50;;;2.50;;
74660;SDS011;63191;39.566;2.654;2023-06-04T12:01:43;6.40;;;2.70;;
74660;SDS011;63191;39.566;2.654;2023-06-04T12:04:13;7.60;;;2.60;;
74660;SDS011;63191;39.566;2.654;2023-06-04T12:06:54;5.90;;;2.20;;
74660;SDS011;63191;39.566;2.654;2023-06-04T12:09:27;6.90;;;2.60;;
74660;SDS011;63191;39.566;2.654;2023-06-04T12:11:58;6.10;;;2.60;;
74660;SDS011;63191;39.566;2.654;2023-06-04T12:14:25;7.40;;;2.40;;
74660;SDS011;63191;39.566;2.654;2023-06-04T12:17:02;6.50;;;2.60;;
74660;SDS011;63191;39.566;2.654;2023-06-04T12:19:49;7.00;;;2.50;;
74660;SDS011;63191;39.566;2.654;2023-06-04T12:22:16;6.70;;;2.40;;
74660;SDS011;63191;39.566;2.654;2023-06-04T12:24:48;6.30;;;2.70;;
74660;SDS011;63191;39.566;2.654;2023-06-04T12:27:19;6.50;;;2.50;;
74660;SDS011;63191;39.566;2.654;2023-06-04T12:30:00;5.90;;;2.70;;
74660;SDS011;63191;39.566;2.654;2023-06-04T12:32:28;7.70;;;2.50;;
74660;SDS011;63191;39.566;2.654;2023-06-04T12:34:54;7.10;;;2.30;;
74660;SDS011;63191;39.566;2.654;2023-06-04T12:37:24;6.90;;;2.50;;
74660;SDS011;63191;39.566;2.654;2023-06-04T12:39:55;6.20;;;2.40;;
74660;SDS011;63191;39.566;2.654;2023-06-04T12:42:21;6.40;;;2.50;;
74660;SDS011;63191;39.566;2.654;2023-06-04T12:44:48;5.00;;;2.30;;
74660;SDS011;63191;39.566;2.654;2023-06-04T12:47:13;5.60;;;2.50;;
74660;SDS011;63191;39.566;2.654;2023-06-04T12:49:41;6.60;;;2.40;;
74660;SDS011;63191;39.566;2.654;2023-06-04T12:52:06;7.40;;;3.10;;
74660;SDS011;63191;39.566;2.654;2023-06-04T12:54:32;6.90;;;2.60;;
74660;SDS011;63191;39.566;2.654;2023-06-04T12:56:59;7.30;;;2.70;;
74660;SDS011;63191;39.566;2.654;2023-06-04T12:59:26;6.60;;;2.40;;
74660;SDS011;63191;39.566;2.654;2023-06-04T13:01:55;6.50;;;2.50;;
74660;SDS011;63191;39.566;2.654;2023-06-04T13:04:21;8.30;;;2.60;;
74660;SDS011;63191;39.566;2.654;2023-06-04T13:06:49;5.40;;;2.20;;
74660;SDS011;63191;39.566;2.654;2023-06-04T13:09:18;5.70;;;2.40;;
74660;SDS011;63191;39.566;2.654;2023-06-04T13:11:46;5.50;;;2.50;;
74660;SDS011;63191;39.566;2.654;2023-06-04T13:14:11;5.70;;;2.60;;
74660;SDS011;63191;39.566;2.654;2023-06-04T13:16:38;9.80;;;4.90;;
74660;SDS011;63191;39.566;2.654;2023-06-04T13:19:04;10.80;;;5.80;;
74660;SDS011;63191;39.566;2.654;2023-06-04T13:21:30;8.30;;;3.00;;
74660;SDS011;63191;39.566;2.654;2023-06-04T13:23:56;9.70;;;3.30;;
74660;SDS011;63191;39.566;2.654;2023-06-04T13:26:22;6.20;;;2.70;;
74660;SDS011;63191;39.566;2.654;2023-06-04T13:28:48;6.30;;;2.80;;
74660;SDS011;63191;39.566;2.654;2023-06-04T13:31:14;5.70;;;2.60;;
74660;SDS011;63191;39.566;2.654;2023-06-04T13:33:41;6.30;;;2.40;;
74660;SDS011;63191;39.566;2.654;2023-06-04T13:36:07;7.30;;;3.10;;
74660;SDS011;63191;39.566;2.654;2023-06-04T13:38:33;6.50;;;2.60;;
74660;SDS011;63191;39.566;2.654;2023-06-04T13:40:59;6.50;;;2.80;;
74660;SDS011;63191;39.566;2.654;2023-06-04T13:43:25;7.60;;;2.70;;
74660;SDS011;63191;39.566;2.654;2023-06-04T13:45:51;6.80;;;2.20;;
74660;SDS011;63191;39.566;2.654;2023-06-04T13:48:16;5.50;;;2.30;;
74660;SDS011;63191;39.566;2.654;2023-06-04T13:50:42;6.70;;;2.70;;
74660;SDS011;63191;39.566;2.654;2023-06-04T13:53:11;5.90;;;2.60;;
74660;SDS011;63191;39.566;2.654;2023-06-04T13:55:38;6.50;;;2.30;;
74660;SDS011;63191;39.566;2.654;2023-06-04T13:58:05;5.30;;;2.20;;
74660;SDS011;63191;39.566;2.654;2023-06-04T14:00:33;7.50;;;2.30;;
74660;SDS011;63191;39.566;2.654;2023-06-04T14:02:59;4.40;;;1.70;;
74660;SDS011;63191;39.566;2.654;2023-06-04T14:05:25;5.30;;;1.70;;
74660;SDS011;63191;39.566;2.654;2023-06-04T14:07:52;5.10;;;1.60;;
74660;SDS011;63191;39.566;2.654;2023-06-04T14:10:19;6.30;;;2.10;;
74660;SDS011;63191;39.566;2.654;2023-06-04T14:12:46;4.70;;;1.20;;
74660;SDS011;63191;39.566;2.654;2023-06-04T14:15:12;6.00;;;1.30;;
74660;SDS011;63191;39.566;2.654;2023-06-04T14:17:38;4.70;;;1.20;;
74660;SDS011;63191;39.566;2.654;2023-06-04T14:20:05;4.60;;;1.40;;
74660;SDS011;63191;39.566;2.654;2023-06-04T14:22:35;4.40;;;1.40;;
74660;SDS011;63191;39.566;2.654;2023-06-04T14:25:05;4.30;;;1.20;;
74660;SDS011;63191;39.566;2.654;2023-06-04T14:27:33;5.20;;;1.00;;
74660;SDS011;63191;39.566;2.654;2023-06-04T14:30:00;7.30;;;1.50;;
74660;SDS011;63191;39.566;2.654;2023-06-04T14:32:29;5.10;;;1.30;;
74660;SDS011;63191;39.566;2.654;2023-06-04T14:34:55;4.90;;;1.20;;
74660;SDS011;63191;39.566;2.654;2023-06-04T14:37:22;5.00;;;1.00;;
74660;SDS011;63191;39.566;2.654;2023-06-04T14:39:48;2.30;;;0.90;;
74660;SDS011;63191;39.566;2.654;2023-06-04T14:42:14;2.50;;;1.10;;
74660;SDS011;63191;39.566;2.654;2023-06-04T14:44:41;3.80;;;1.10;;
74660;SDS011;63191;39.566;2.654;2023-06-04T14:47:10;4.40;;;0.80;;
74660;SDS011;63191;39.566;2.654;2023-06-04T14:49:36;4.00;;;1.00;;
74660;SDS011;63191;39.566;2.654;2023-06-04T14:52:03;3.20;;;0.90;;
74660;SDS011;63191;39.566;2.654;2023-06-04T14:54:29;4.10;;;1.00;;
74660;SDS011;63191;39.566;2.654;2023-06-04T14:56:55;3.40;;;1.00;;
74660;SDS011;63191;39.566;2.654;2023-06-04T14:59:21;3.90;;;1.00;;
74660;SDS011;63191;39.566;2.654;2023-06-04T15:01:48;4.70;;;1.00;;
74660;SDS011;63191;39.566;2.654;2023-06-04T15:04:13;1.80;;;0.70;;